createdAt,value
2023-11-09T00:00:54.158Z,3.38
2023-11-09T00:03:21.803Z,1.65
2023-11-09T00:05:51.035Z,3.70
2023-11-09T00:08:19.047Z,1.60
2023-11-09T00:10:46.679Z,3.28
2023-11-09T00:13:14.366Z,1.85
2023-11-09T00:15:42.162Z,2.50
2023-11-09T00:18:09.765Z,1.25
2023-11-09T00:20:37.436Z,2.70
2023-11-09T00:23:04.941Z,2.00
2023-11-09T00:25:32.507Z,1.52
2023-11-09T00:28:00.111Z,2.45
2023-11-09T00:30:29.300Z,4.47
2023-11-09T00:32:56.884Z,3.30
2023-11-09T00:35:24.578Z,2.75
2023-11-09T00:37:52.192Z,4.30
2023-11-09T00:40:19.872Z,1.80
2023-11-09T00:42:47.609Z,1.00
2023-11-09T00:45:15.284Z,2.15
2023-11-09T00:47:42.916Z,3.22
2023-11-09T00:50:10.800Z,1.40
2023-11-09T00:52:38.306Z,1.70
2023-11-09T00:55:06.537Z,1.85
2023-11-09T00:57:34.701Z,1.33
2023-11-09T01:00:04.800Z,2.45
2023-11-09T01:02:38.332Z,2.60
2023-11-09T01:05:08.312Z,1.10
2023-11-09T01:07:35.949Z,2.00
2023-11-09T01:10:05.758Z,1.38
2023-11-09T01:12:33.348Z,1.73
2023-11-09T01:15:03.313Z,1.95
2023-11-09T01:17:31.220Z,1.25
2023-11-09T01:19:58.850Z,1.60
2023-11-09T01:22:31.163Z,2.95
2023-11-09T01:24:58.775Z,1.65
2023-11-09T01:27:26.417Z,2.17
2023-11-09T01:29:54.032Z,2.35
2023-11-09T01:32:21.576Z,2.42
2023-11-09T01:34:49.236Z,2.70
2023-11-09T01:37:16.895Z,1.42
2023-11-09T01:39:45.982Z,4.05
2023-11-09T01:42:14.436Z,1.80
2023-11-09T01:44:41.942Z,2.30
2023-11-09T01:47:12.042Z,2.05
2023-11-09T01:49:40.481Z,1.75
2023-11-09T01:52:08.998Z,1.85
2023-11-09T01:54:38.136Z,1.65
2023-11-09T01:57:08.256Z,1.67
2023-11-09T01:59:40.045Z,2.97
2023-11-09T02:02:07.792Z,1.10
2023-11-09T02:04:35.857Z,1.38
2023-11-09T02:07:04.256Z,1.13
2023-11-09T02:09:31.955Z,2.22
2023-11-09T02:11:59.548Z,1.27
2023-11-09T02:14:28.067Z,3.45
2023-11-09T02:16:59.360Z,2.03
2023-11-09T02:19:30.121Z,1.25
2023-11-09T02:21:58.656Z,1.60
2023-11-09T02:24:27.694Z,2.22
2023-11-09T02:26:58.764Z,1.35
2023-11-09T02:29:26.488Z,1.77
2023-11-09T02:31:54.157Z,2.15
2023-11-09T02:34:25.398Z,1.48
2023-11-09T02:36:54.262Z,1.77
2023-11-09T02:39:21.909Z,2.25
2023-11-09T02:41:49.455Z,2.78
2023-11-09T02:44:17.216Z,1.88
2023-11-09T02:46:44.809Z,3.13
2023-11-09T02:49:13.613Z,2.53
2023-11-09T02:51:41.245Z,1.58
2023-11-09T02:54:08.772Z,2.88
2023-11-09T02:56:37.668Z,2.15
2023-11-09T02:59:06.010Z,1.30
2023-11-09T03:01:36.324Z,2.58
2023-11-09T03:04:04.673Z,3.33
2023-11-09T03:06:32.277Z,1.45
2023-11-09T03:09:01.791Z,2.17
2023-11-09T03:11:30.720Z,1.83
2023-11-09T03:13:58.710Z,1.88
2023-11-09T03:16:26.267Z,1.70
2023-11-09T03:18:54.111Z,2.92
2023-11-09T03:21:21.716Z,2.75
2023-11-09T03:23:50.456Z,3.45
2023-11-09T03:26:18.321Z,2.67
2023-11-09T03:28:45.798Z,2.20
2023-11-09T03:31:13.592Z,2.75
2023-11-09T03:33:41.217Z,2.33
2023-11-09T03:36:08.862Z,2.58
2023-11-09T03:38:36.392Z,3.25
2023-11-09T03:41:04.185Z,2.70
2023-11-09T03:43:31.738Z,2.80
2023-11-09T03:46:00.664Z,3.13
2023-11-09T03:48:28.406Z,4.07
2023-11-09T03:50:55.944Z,2.05
2023-11-09T03:53:23.433Z,3.53
2023-11-09T03:55:50.947Z,3.00
2023-11-09T03:58:18.559Z,3.30
2023-11-09T04:00:46.124Z,4.85
2023-11-09T04:03:15.387Z,4.30
2023-11-09T04:05:42.958Z,2.90
2023-11-09T04:08:10.526Z,3.58
2023-11-09T04:10:38.111Z,5.47
2023-11-09T04:13:05.608Z,2.88
2023-11-09T04:15:33.091Z,3.83
2023-11-09T04:18:00.836Z,4.22
2023-11-09T04:20:28.557Z,5.05
2023-11-09T04:22:56.411Z,6.18
2023-11-09T04:25:24.035Z,7.80
2023-11-09T04:27:52.156Z,4.75
2023-11-09T04:30:21.693Z,3.90
2023-11-09T04:32:52.825Z,7.20
2023-11-09T04:35:21.363Z,4.18
2023-11-09T04:37:53.587Z,5.80
2023-11-09T04:40:23.448Z,4.72
2023-11-09T04:42:51.109Z,4.90
2023-11-09T04:45:18.775Z,3.88
2023-11-09T04:47:56.866Z,6.47
2023-11-09T04:50:32.262Z,6.38
2023-11-09T04:53:20.766Z,6.05
2023-11-09T04:56:05.100Z,7.53
2023-11-09T04:58:48.529Z,5.75
2023-11-09T05:01:35.145Z,6.47
2023-11-09T05:04:22.215Z,5.65
2023-11-09T05:06:50.164Z,10.32
2023-11-09T05:09:20.979Z,6.95
2023-11-09T05:11:48.961Z,6.07
2023-11-09T05:14:17.055Z,5.18
2023-11-09T05:16:45.050Z,8.35
2023-11-09T05:19:14.056Z,5.57
2023-11-09T05:21:41.741Z,7.50
2023-11-09T05:24:09.544Z,5.25
2023-11-09T05:26:37.965Z,7.22
2023-11-09T05:29:10.286Z,5.47
2023-11-09T05:31:39.347Z,7.03
2023-11-09T05:34:06.951Z,7.13
2023-11-09T05:36:35.783Z,6.80
2023-11-09T05:39:07.333Z,6.28
2023-11-09T05:41:35.036Z,6.13
2023-11-09T05:44:03.007Z,5.20
2023-11-09T05:46:32.050Z,5.22
2023-11-09T05:49:00.095Z,6.68
2023-11-09T05:51:29.594Z,6.55
2023-11-09T05:53:58.617Z,4.95
2023-11-09T05:56:29.072Z,8.52
2023-11-09T05:58:57.597Z,4.80
2023-11-09T06:01:26.147Z,7.18
2023-11-09T06:03:55.385Z,6.63
2023-11-09T06:06:22.947Z,7.18
2023-11-09T06:08:51.020Z,7.25
2023-11-09T06:11:18.647Z,6.38
2023-11-09T06:13:47.022Z,7.20
2023-11-09T06:16:15.524Z,7.28
2023-11-09T06:18:44.131Z,8.40
2023-11-09T06:21:11.654Z,7.05
2023-11-09T06:23:39.144Z,8.80
2023-11-09T06:26:07.170Z,8.02
2023-11-09T06:28:34.677Z,7.85
2023-11-09T06:31:05.525Z,7.30
2023-11-09T06:33:34.630Z,6.90
2023-11-09T06:36:02.904Z,7.75
2023-11-09T06:38:32.038Z,7.35
2023-11-09T06:40:59.684Z,7.85
2023-11-09T06:43:27.201Z,8.57
2023-11-09T06:45:57.401Z,8.32
2023-11-09T06:48:26.324Z,8.10
2023-11-09T06:50:55.340Z,8.63
2023-11-09T06:53:23.492Z,9.38
2023-11-09T06:55:52.602Z,9.52
2023-11-09T06:58:20.309Z,10.07
2023-11-09T07:00:48.151Z,9.85
2023-11-09T07:03:16.467Z,10.35
2023-11-09T07:05:45.757Z,11.32
2023-11-09T07:08:17.608Z,11.03
2023-11-09T07:10:50.042Z,10.15
2023-11-09T07:13:20.975Z,11.85
2023-11-09T07:15:48.574Z,12.43
2023-11-09T07:18:18.569Z,11.77
2023-11-09T07:20:50.997Z,16.30
2023-11-09T07:23:30.388Z,12.68
2023-11-09T07:25:59.889Z,15.23
2023-11-09T07:28:30.217Z,13.02
2023-11-09T07:30:58.115Z,14.13
2023-11-09T07:33:25.899Z,20.58
2023-11-09T07:35:53.517Z,17.65
2023-11-09T07:38:21.051Z,19.55
2023-11-09T07:40:52.820Z,19.40
2023-11-09T07:43:20.538Z,18.23
2023-11-09T07:45:48.111Z,19.30
2023-11-09T07:48:17.405Z,20.25
2023-11-09T07:50:47.399Z,21.00
2023-11-09T07:53:14.950Z,19.33
2023-11-09T07:55:42.670Z,22.25
2023-11-09T07:58:10.277Z,23.35
2023-11-09T08:00:37.884Z,20.85
2023-11-09T08:03:09.251Z,22.30
2023-11-09T08:05:42.633Z,19.58
2023-11-09T08:08:16.448Z,20.63
2023-11-09T08:10:53.173Z,19.00
2023-11-09T08:13:24.858Z,19.67
2023-11-09T08:16:02.797Z,25.17
2023-11-09T08:18:31.813Z,20.45
2023-11-09T08:21:01.079Z,20.15
2023-11-09T08:23:39.775Z,21.52
2023-11-09T08:26:15.192Z,21.67
2023-11-09T08:31:20.393Z,21.60
2023-11-09T08:33:49.571Z,21.45
2023-11-09T08:36:22.006Z,25.10
2023-11-09T08:38:51.243Z,27.08
2023-11-09T08:41:23.551Z,19.27
2023-11-09T08:43:54.105Z,20.17
2023-11-09T08:46:21.953Z,22.55
2023-11-09T08:48:49.700Z,23.98
2023-11-09T08:51:19.474Z,22.13
2023-11-09T08:53:50.741Z,21.80
2023-11-09T08:56:22.864Z,20.50
2023-11-09T08:58:51.560Z,20.55
2023-11-09T09:01:19.650Z,21.92
2023-11-09T09:03:55.359Z,21.70
2023-11-09T09:06:26.822Z,21.08
2023-11-09T09:08:59.265Z,23.05
2023-11-09T09:11:29.284Z,25.35
2023-11-09T09:14:05.929Z,21.83
2023-11-09T09:16:37.480Z,25.10
2023-11-09T09:19:05.215Z,23.23
2023-11-09T09:21:34.473Z,20.58
2023-11-09T09:24:04.107Z,24.83
2023-11-09T09:26:34.579Z,21.20
2023-11-09T09:29:02.663Z,20.90
2023-11-09T09:31:30.481Z,23.38
2023-11-09T09:34:11.425Z,23.05
2023-11-09T09:36:39.429Z,21.47
2023-11-09T09:39:09.692Z,17.70
2023-11-09T09:41:51.307Z,21.42
2023-11-09T09:44:20.032Z,20.23
2023-11-09T09:46:56.780Z,19.33
2023-11-09T09:49:26.846Z,15.57
2023-11-09T09:51:57.026Z,15.95
2023-11-09T09:54:25.854Z,17.05
2023-11-09T09:56:54.885Z,14.18
2023-11-09T09:59:24.272Z,17.38
2023-11-09T10:01:54.385Z,14.82
2023-11-09T10:04:24.707Z,13.52
2023-11-09T10:06:52.792Z,14.82
2023-11-09T10:09:25.827Z,15.45
2023-11-09T10:11:55.477Z,13.93
2023-11-09T10:14:25.508Z,15.23
2023-11-09T10:16:53.448Z,15.52
2023-11-09T10:19:21.099Z,13.90
2023-11-09T10:21:48.857Z,14.73
2023-11-09T10:24:17.353Z,21.70
2023-11-09T10:26:47.024Z,15.82
2023-11-09T10:29:21.146Z,14.65
2023-11-09T10:31:49.041Z,13.20
2023-11-09T10:34:17.975Z,14.82
2023-11-09T10:36:46.256Z,20.85
2023-11-09T10:39:25.197Z,17.75
2023-11-09T10:41:57.375Z,11.75
2023-11-09T10:44:31.173Z,17.08
2023-11-09T10:47:04.309Z,12.30
2023-11-09T10:49:39.017Z,15.93
2023-11-09T10:52:10.900Z,15.27
2023-11-09T10:54:43.495Z,13.90
2023-11-09T10:57:14.053Z,14.68
2023-11-09T10:59:42.836Z,14.88
2023-11-09T11:02:21.069Z,13.63
2023-11-09T11:04:51.646Z,13.23
2023-11-09T11:07:26.931Z,9.90
2023-11-09T11:09:58.285Z,9.32
2023-11-09T11:12:26.950Z,11.02
2023-11-09T11:14:57.764Z,12.48
2023-11-09T11:17:39.352Z,11.87
2023-11-09T11:20:18.966Z,9.25
2023-11-09T11:23:09.550Z,8.52
2023-11-09T11:25:46.749Z,10.57
2023-11-09T11:28:18.578Z,12.35
2023-11-09T11:30:46.483Z,9.20
2023-11-09T11:33:18.387Z,8.20
2023-11-09T11:35:56.717Z,11.05
2023-11-09T11:38:30.802Z,11.80
2023-11-09T11:41:05.861Z,10.82
2023-11-09T11:43:38.682Z,11.02
2023-11-09T11:46:13.846Z,11.60
2023-11-09T11:48:54.947Z,11.10
2023-11-09T11:51:25.469Z,9.30
2023-11-09T11:54:10.852Z,11.82
2023-11-09T11:56:39.944Z,7.75
2023-11-09T11:59:10.937Z,11.63
2023-11-09T12:01:41.430Z,10.77
2023-11-09T12:04:15.466Z,10.73
2023-11-09T12:06:48.447Z,11.40
2023-11-09T12:09:19.477Z,9.77
2023-11-09T12:11:50.766Z,7.93
2023-11-09T12:14:22.049Z,8.45
2023-11-09T12:16:50.420Z,8.15
2023-11-09T12:19:19.527Z,8.02
2023-11-09T12:21:48.416Z,8.90
2023-11-09T12:24:24.239Z,8.63
2023-11-09T12:27:10.986Z,8.65
2023-11-09T12:29:42.599Z,10.55
2023-11-09T12:32:13.253Z,9.50
2023-11-09T12:34:43.288Z,11.32
2023-11-09T12:37:16.301Z,13.32
2023-11-09T12:39:44.766Z,12.00
2023-11-09T12:42:14.924Z,12.25
2023-11-09T12:44:43.961Z,9.32
2023-11-09T12:47:13.243Z,12.55
2023-11-09T12:49:45.794Z,9.88
2023-11-09T12:52:13.811Z,9.57
2023-11-09T12:54:41.767Z,13.90
2023-11-09T12:57:09.829Z,10.82
2023-11-09T12:59:43.614Z,9.10
2023-11-09T13:02:29.854Z,13.23
2023-11-09T13:04:59.057Z,12.80
2023-11-09T13:07:28.155Z,10.65
2023-11-09T13:10:16.430Z,12.02
2023-11-09T13:12:46.807Z,9.90
2023-11-09T13:15:43.907Z,8.38
2023-11-09T13:18:14.027Z,9.68
2023-11-09T13:20:42.116Z,12.05
2023-11-09T13:23:12.883Z,11.40
2023-11-09T13:25:51.346Z,12.73
2023-11-09T13:28:19.644Z,12.05
2023-11-09T13:30:51.183Z,10.45
2023-11-09T13:33:32.997Z,9.90
2023-11-09T13:36:10.229Z,10.05
2023-11-09T13:39:12.672Z,11.23
2023-11-09T13:41:42.963Z,10.00
2023-11-09T13:44:13.083Z,7.82
2023-11-09T13:46:44.064Z,11.30
2023-11-09T13:49:28.997Z,10.80
2023-11-09T13:52:03.402Z,14.13
2023-11-09T13:54:38.025Z,9.23
2023-11-09T13:57:13.960Z,10.82
2023-11-09T13:59:56.490Z,13.45
2023-11-09T14:02:35.661Z,16.80
2023-11-09T14:05:11.297Z,13.38
2023-11-09T14:07:43.724Z,13.27
2023-11-09T14:10:16.193Z,18.67
2023-11-09T14:12:45.172Z,11.40
2023-11-09T14:15:33.310Z,13.68
2023-11-09T14:18:21.831Z,9.55
2023-11-09T14:21:06.918Z,11.13
2023-11-09T14:23:38.449Z,11.77
2023-11-09T14:28:34.985Z,13.27
2023-11-09T14:31:07.369Z,8.20
2023-11-09T14:33:37.269Z,13.65
2023-11-09T14:36:07.455Z,12.65
2023-11-09T14:38:35.474Z,15.25
2023-11-09T14:41:13.601Z,11.95
2023-11-09T14:43:41.788Z,12.25
2023-11-09T14:46:17.582Z,16.55
2023-11-09T14:48:46.528Z,11.45
2023-11-09T14:51:25.637Z,11.88
2023-11-09T14:53:53.912Z,12.63
2023-11-09T14:56:22.967Z,9.38
2023-11-09T14:58:52.159Z,15.95
2023-11-09T15:01:20.285Z,9.48
2023-11-09T15:03:47.970Z,11.10
2023-11-09T15:06:21.969Z,9.38
2023-11-09T15:08:50.215Z,13.52
2023-11-09T15:11:21.854Z,8.75
2023-11-09T15:13:50.779Z,10.10
2023-11-09T15:16:21.202Z,10.02
2023-11-09T15:18:51.726Z,11.40
2023-11-09T15:21:22.881Z,18.48
2023-11-09T15:23:50.723Z,13.23
2023-11-09T15:26:19.907Z,11.85
2023-11-09T15:28:49.307Z,11.20
2023-11-09T15:31:17.112Z,11.93
2023-11-09T15:33:44.755Z,14.13
2023-11-09T15:36:12.335Z,10.10
2023-11-09T15:38:40.595Z,13.07
2023-11-09T15:41:19.502Z,12.23
2023-11-09T15:43:52.844Z,11.52
2023-11-09T15:46:21.300Z,10.25
2023-11-09T15:48:50.212Z,9.82
2023-11-09T15:51:18.101Z,10.30
2023-11-09T15:53:45.912Z,13.48
2023-11-09T15:56:16.172Z,11.95
2023-11-09T15:58:44.062Z,8.85
2023-11-09T16:01:15.226Z,11.75
2023-11-09T16:03:46.104Z,11.00
2023-11-09T16:06:14.214Z,8.07
2023-11-09T16:08:42.968Z,9.55
2023-11-09T16:11:11.022Z,10.23
2023-11-09T16:13:39.200Z,10.73
2023-11-09T16:16:07.384Z,12.75
2023-11-09T16:18:35.299Z,14.70
2023-11-09T16:21:02.973Z,8.82
2023-11-09T16:23:32.523Z,10.05
2023-11-09T16:26:01.262Z,12.63
2023-11-09T16:28:32.536Z,9.20
2023-11-09T16:31:07.738Z,10.18
2023-11-09T16:33:36.512Z,8.30
2023-11-09T16:36:04.578Z,9.73
2023-11-09T16:38:32.712Z,9.30
2023-11-09T16:41:01.243Z,14.15
2023-11-09T16:43:29.196Z,9.00
2023-11-09T16:45:57.043Z,8.63
2023-11-09T16:48:24.814Z,9.82
2023-11-09T16:50:52.454Z,10.13
2023-11-09T16:53:20.648Z,9.88
2023-11-09T16:55:48.346Z,12.95
2023-11-09T16:58:16.067Z,9.40
2023-11-09T17:00:43.822Z,8.60
2023-11-09T17:03:11.572Z,10.63
2023-11-09T17:05:40.791Z,8.27
2023-11-09T17:08:10.310Z,9.48
2023-11-09T17:10:39.044Z,9.97
2023-11-09T17:13:06.687Z,4.97
2023-11-09T17:15:34.232Z,2.83
2023-11-09T17:18:01.810Z,4.38
2023-11-09T17:20:29.413Z,1.92
2023-11-09T17:22:58.666Z,1.70
2023-11-09T17:25:29.835Z,1.42
2023-11-09T17:27:57.870Z,3.00
2023-11-09T17:30:25.687Z,2.70
2023-11-09T17:32:55.562Z,6.88
2023-11-09T17:35:27.221Z,9.30
2023-11-09T17:37:55.316Z,6.25
2023-11-09T17:40:23.999Z,4.45
2023-11-09T17:42:51.643Z,7.35
2023-11-09T17:45:19.654Z,7.13
2023-11-09T17:47:48.081Z,3.45
2023-11-09T17:50:18.298Z,3.00
2023-11-09T17:52:48.373Z,2.70
2023-11-09T17:55:16.616Z,3.20
2023-11-09T17:57:44.526Z,1.35
2023-11-09T18:00:15.672Z,1.30
2023-11-09T18:02:45.010Z,2.97
2023-11-09T18:05:13.983Z,1.77
2023-11-09T18:07:41.840Z,1.88
2023-11-09T18:10:09.884Z,2.00
2023-11-09T18:12:37.487Z,4.18
2023-11-09T18:15:06.409Z,10.43
2023-11-09T18:17:35.762Z,3.60
2023-11-09T18:20:07.228Z,3.42
2023-11-09T18:22:35.212Z,2.88
2023-11-09T18:25:03.699Z,2.70
2023-11-09T18:27:32.552Z,2.95
2023-11-09T18:30:00.574Z,1.02
2023-11-09T18:32:28.653Z,1.23
2023-11-09T18:34:56.912Z,1.33
2023-11-09T18:37:24.978Z,0.70
2023-11-09T18:39:52.569Z,2.33
2023-11-09T18:42:20.401Z,1.33
2023-11-09T18:44:47.997Z,1.48
2023-11-09T18:47:15.505Z,1.27
2023-11-09T18:52:13.887Z,3.00
2023-11-09T18:54:41.573Z,1.63
2023-11-09T18:57:10.556Z,2.15
2023-11-09T18:59:38.184Z,3.05
2023-11-09T19:02:07.858Z,29.15
2023-11-09T19:07:06.222Z,6.28
2023-11-09T19:09:33.845Z,1.98
2023-11-09T19:12:04.222Z,3.50
2023-11-09T19:14:32.231Z,5.65
2023-11-09T19:17:00.639Z,2.97
2023-11-09T19:19:28.349Z,2.97
2023-11-09T19:24:27.150Z,2.50
2023-11-09T19:26:55.157Z,2.05
2023-11-09T19:29:22.807Z,3.28
2023-11-09T19:31:50.429Z,1.95
2023-11-09T19:34:18.332Z,2.72
2023-11-09T19:36:46.884Z,6.38
2023-11-09T19:39:17.214Z,3.10
2023-11-09T19:41:44.871Z,2.67
2023-11-09T19:44:13.581Z,3.47
2023-11-09T19:46:41.449Z,3.45
2023-11-09T19:49:10.262Z,5.05
2023-11-09T19:51:38.010Z,4.35
2023-11-09T19:54:08.707Z,4.80
2023-11-09T19:56:36.373Z,4.90
2023-11-09T19:59:04.150Z,4.57
2023-11-09T20:01:33.554Z,4.53
2023-11-09T20:04:01.385Z,6.78
2023-11-09T20:06:29.491Z,5.57
2023-11-09T20:08:59.399Z,4.50
2023-11-09T20:11:28.036Z,3.72
2023-11-09T20:13:55.697Z,5.60
2023-11-09T20:16:23.326Z,4.38
2023-11-09T20:18:50.957Z,4.53
2023-11-09T20:21:20.667Z,4.88
2023-11-09T20:23:48.346Z,4.22
2023-11-09T20:26:19.566Z,5.35
2023-11-09T20:28:48.829Z,8.98
2023-11-09T20:31:16.336Z,5.78
2023-11-09T20:33:45.984Z,5.65
2023-11-09T20:36:14.709Z,8.23
2023-11-09T20:38:42.438Z,5.28
2023-11-09T20:41:10.580Z,4.80
2023-11-09T20:43:40.135Z,5.50
2023-11-09T20:46:10.823Z,6.57
2023-11-09T20:48:38.562Z,6.10
2023-11-09T20:51:09.289Z,6.88
2023-11-09T20:53:37.095Z,5.17
2023-11-09T20:56:08.930Z,3.97
2023-11-09T20:58:39.291Z,4.50
2023-11-09T21:01:06.972Z,4.13
2023-11-09T21:03:40.801Z,5.88
2023-11-09T21:06:11.842Z,4.22
2023-11-09T21:08:39.952Z,4.20
2023-11-09T21:11:07.541Z,4.68
2023-11-09T21:13:37.251Z,6.10
2023-11-09T21:16:05.581Z,4.65
2023-11-09T21:18:33.216Z,3.90
2023-11-09T21:21:01.169Z,5.25
2023-11-09T21:23:29.161Z,4.72
2023-11-09T21:25:56.717Z,4.97
2023-11-09T21:28:24.275Z,4.38
2023-11-09T21:30:52.442Z,4.75
2023-11-09T21:33:20.429Z,6.20
2023-11-09T21:35:49.531Z,5.05
2023-11-09T21:38:17.313Z,6.03
2023-11-09T21:40:45.008Z,4.78
2023-11-09T21:43:15.695Z,5.18
2023-11-09T21:45:44.310Z,5.67
2023-11-09T21:48:12.299Z,6.00
2023-11-09T21:50:39.946Z,4.63
2023-11-09T21:53:13.994Z,5.53
2023-11-09T21:55:43.002Z,4.97
2023-11-09T21:58:10.579Z,6.45
2023-11-09T22:00:38.409Z,4.57
2023-11-09T22:03:06.774Z,5.68
2023-11-09T22:05:34.453Z,4.75
2023-11-09T22:08:05.688Z,6.72
2023-11-09T22:10:34.180Z,5.72
2023-11-09T22:13:01.923Z,5.10
2023-11-09T22:15:32.526Z,6.03
2023-11-09T22:18:01.761Z,4.10
2023-11-09T22:20:29.427Z,6.25
2023-11-09T22:22:56.992Z,6.20
2023-11-09T22:25:24.790Z,5.10
2023-11-09T22:27:52.300Z,4.20
2023-11-09T22:30:20.630Z,6.13
2023-11-09T22:32:48.374Z,4.00
2023-11-09T22:35:16.196Z,4.68
2023-11-09T22:37:43.905Z,5.70
2023-11-09T22:40:12.342Z,4.38
2023-11-09T22:42:40.252Z,5.00
2023-11-09T22:45:09.547Z,5.03
2023-11-09T22:47:37.255Z,5.85
2023-11-09T22:50:05.707Z,4.72
2023-11-09T22:52:37.992Z,4.15
2023-11-09T22:55:09.652Z,3.92
2023-11-09T22:57:37.787Z,4.72
2023-11-09T23:00:19.368Z,4.90
2023-11-09T23:05:14.691Z,4.88
2023-11-09T23:07:44.086Z,4.55
2023-11-09T23:10:15.089Z,5.78
2023-11-09T23:12:43.190Z,6.13
2023-11-09T23:15:15.289Z,6.18
2023-11-09T23:17:46.780Z,6.95
2023-11-09T23:20:15.496Z,6.45
2023-11-09T23:22:44.501Z,5.07
2023-11-09T23:25:13.000Z,4.85
2023-11-09T23:27:40.756Z,6.15
2023-11-09T23:30:10.631Z,5.25
2023-11-09T23:32:38.339Z,5.03
2023-11-09T23:35:07.165Z,5.00
2023-11-09T23:37:35.053Z,6.63
2023-11-09T23:40:06.598Z,7.03
2023-11-09T23:45:02.291Z,7.60
2023-11-09T23:47:30.077Z,8.10
2023-11-09T23:49:57.608Z,5.30
2023-11-09T23:52:25.387Z,5.85
2023-11-09T23:54:52.929Z,4.80
2023-11-09T23:57:20.557Z,7.00
2023-11-09T23:59:48.622Z,4.13
